AirNav   Everest Fuels
 
 358 users online  

WV20 Wetzel County Hospital Heliport
New Martinsville, West Virginia, USA

GOING TO NEW MARTINSVILLE?


FAA INFORMATION EFFECTIVE 20 MAY 2021

Location

FAA Identifier: WV20
Lat/Long: 39-40-52.2800N 080-50-55.3100W
39-40.871333N 080-50.921833W
39.6811889,-80.8486972
(estimated)
Elevation: 689 ft. / 210 m (estimated)
Variation: 07W (1990)
From city: 3 miles N of NEW MARTINSVILLE, WV
Time zone: UTC -4 (UTC -5 during Standard Time)
Zip code: 26624

Heliport Operations

Heliport use: Private use, MEDICAL USE ONLY.
Activation date: 03/1992
Control tower: no
ARTCC: CLEVELAND CENTER
FSS: ELKINS FLIGHT SERVICE STATION [703-724-4288]
Attendance: CONTINUOUS
Wind indicator: lighted
Segmented circle: no
Lights: FOR PERIMETER LGTS CALL 304-455-8100.
Beacon: white-green-yellow (heliport)
FOR ROTG BCN CALL 304-455-8100.

Heliport Communications

WX AWOS-3 at MPG (13 nm NE): 119.05 (304-845-2959)

Nearby radio navigation aids

VOR radial/distance  VOR name  Freq  Var
AIRr191/20.2BELLAIRE VOR/DME117.1007W
JPUr062/28.3PARKERSBURG VOR/DME108.6003W
HLGr207/37.0WHEELING VOR/DME112.2007W
CKBr318/37.2CLARKSBURG VOR/DME112.6004W

 
NDB name  Hdg/Dist  Freq  Var  ID
CADIZ174/34.223907WCFX -.-. ..-. -..-

Heliport Services

Runway Information

Helipad H1

Dimensions: 20 x 20 ft. / 6 x 6 m
Surface: concrete
Runway edge lights: PERI
Latitude: 39-40.871333N
Longitude: 080-50.921833W
Elevation: 689.0 ft.
Traffic pattern: leftleft

Heliport Ownership and Management from official FAA records

Ownership: Publicly-owned
Owner: WETZEL COUNTY HOSPITAL ASSOCIATION
3 EAST BENJAMIN DRIVE
NEW MARTINSVILLE, WV 26155
Phone 304-455-8000
Manager: TAD GREENE
3 EAST BENJAMIN DRIVE
NEW MARTINSVILLE, WV 26155
Phone 304-455-8195
MICHAEL CONNERS 304-551-4083

Heliport Operational Statistics

Aircraft based on the field: 1
Helicopters: 1
    

Additional Remarks

A52-H1 BLDG 175 FT WEST OF PAD; 20 FT PLINES 300 FT WEST OF PAD; 10 TREES 300 FT WEST OF PAD.
HELIPAD OPERATOR AIR EVAC LIFETEAM (BASE78)
FOR CD CTC CLARKSBURG APCH AT 304-842-2011, WHEN APCH CLSD CTC CLEVELAND ARTCC AT 440-774-0226.

Instrument Procedures

There are no published instrument procedures at WV20.

Some nearby airports with instrument procedures:

KMPG - Marshall County Airport (13 nm NE)
4G5 - Monroe County Airport (13 nm NW)
2P7 - Alderman Airport (23 nm N)
6G5 - Barnesville-Bradfield Airport (25 nm NW)
KHLG - Wheeling Ohio County Airport (31 nm N)
 
Loc | Ops | Rwys | IFR | FBO | Links
Com | Nav | Svcs | Stats | Notes
Area around WV20 (Wetzel County Hospital Heliport)
 
Road maps at: MapQuest Bing Google
 
Aerial photo
No photo
 
Sectional chart

 
Airport distance calculator
Flying to Wetzel County Hospital Heliport? Find the distance to fly.

From to WV20

Sunrise and sunset
Times for 13-Jun-2021
 Local
(UTC-4)
 Zulu
(UTC)
Morning civil twilight05:2309:23
Sunrise05:5609:56
Sunset20:5100:51
Evening civil twilight21:2301:23

Current date and time
Zulu (UTC)  13-Jun-2021 09:04:04
Local (UTC-4)  13-Jun-2021 05:04:04
 
METAR
KHLG 
31nm N 
130853Z AUTO 00000KT 7SM FEW120 21/19 A2987 RMK AO2 SLP105 T02060194 55005
KPKB 
33nm SW 
130856Z AUTO 00000KT 1 3/4SM BR CLR 19/18 A2987 RMK AO2 T01940183
KCKB 
37nm SE 
130853Z AUTO 00000KT 5SM BR CLR 18/18 A2989 RMK AO2 SLP105 T01830178 53000 TSNO
KAFJ 
37nm NE 
130856Z AUTO 00000KT 10SM SCT120 18/18 A2989 RMK AO2 SLP115 T01830178 55005
KCDI 
38nm NW 
130855Z AUTO 00000KT 3SM BR SCT110 18/17 A2986 RMK AO2 T01770174
KMGW 
43nm E 
130853Z AUTO 00000KT 6SM BR CLR 18/17 A2990 RMK AO2 SLP112 T01830172 55001
KW22 
49nm SE 
130855Z AUTO 00000KT 8SM BKN047 17/ A2991 RMK AO2
TAF
KHLG 
31nm N 
130520Z 1306/1406 00000KT P6SM SCT040 FM130900 00000KT 4SM BR SCT150 FM131400 26005KT P6SM BKN040 TEMPO 1319/1323 5SM -TSRA OVC040CB FM140000 32005KT P6SM SCT040
KPKB 
33nm SW 
130825Z 1308/1406 00000KT 4SM BR SCT250 TEMPO 1308/1310 2SM BR SCT003 FM131000 00000KT 3SM BR SCT002 TEMPO 1310/1312 3/4SM BR BKN002 FM131200 00000KT P6SM SCT050 FM131500 25005KT P6SM VCTS SCT060CB FM131800 28007KT P6SM SHRA BKN060 FM132000 25007KT 6SM SHRA VCTS OVC050CB FM132200 28007KT P6SM OVC045 FM140000 34005KT P6SM BKN040
KCKB 
37nm SE 
130825Z 1308/1406 00000KT 4SM BR SCT250 TEMPO 1308/1310 1SM BR SCT003 FM131000 00000KT 3SM BR SCT002 TEMPO 1310/1312 3/4SM BR BKN002 FM131200 00000KT P6SM SCT003 FM131300 VRB03KT P6SM SCT040 FM131600 24006KT P6SM BKN060 FM131900 25007KT 6SM SHRA VCTS BKN045CB FM132200 22007KT P6SM BKN040 FM140500 00000KT P6SM BKN030
NOTAMs
Click for the latest NOTAMs
NOTAMs are issued by the DoD/FAA and will open in a separate window not controlled by AirNav.

 

 
 

Would you like to see your business listed on this page?

 If your business provides an interesting product or service to pilots, flight crews, aircraft, or users of the Wetzel County Hospital Heliport, you should consider listing it here.  To start the listing process, click on the button below
 
Add a business
 

Other Pages about Wetzel County Hospital Heliport

Update a link
 
Copyright © AirNav, LLC. All rights reserved. Privacy Policy  Contact